Time;durP1;ratioP1;P1;durP2;ratioP2;P2;SDS_P1;SDS_P2;PMS_P1;PMS_P2;Temp;Humidity;BMP_temperature;BMP_pressure;BME280_temperature;BME280_humidity;BME280_pressure;Samples;Min_cycle;Max_cycle;Signal;HPM_P1;HPM_P2
2022/01/04 00:00:38;;;;;;;12.27;8.73;;;;;;;9.76;65.92;94631.47;4990603;28;20196;-77
2022/01/04 00:03:06;;;;;;;14.13;9.23;;;;;;;9.67;65.81;94610.09;4973580;28;20324;-77
2022/01/04 00:05:34;;;;;;;11.90;8.40;;;;;;;9.63;65.98;94606.19;4973160;28;20272;-78
2022/01/04 00:08:01;;;;;;;14.27;9.60;;;;;;;9.71;66.06;94618.28;4990887;28;20235;-78
2022/01/04 00:10:29;;;;;;;15.77;9.10;;;;;;;9.69;65.84;94612.50;4988379;28;20200;-80
2022/01/04 00:15:43;;;;;;;14.50;9.37;;;;;;;9.67;65.93;94617.75;4990378;28;20199;-79
2022/01/04 00:18:10;;;;;;;21.27;13.87;;;;;;;9.59;66.03;94604.84;4990634;28;20196;-78
2022/01/04 00:20:37;;;;;;;20.47;13.33;;;;;;;9.25;65.54;94548.28;4990200;28;20208;-79
2022/01/04 00:23:05;;;;;;;26.77;15.70;;;;;;;9.62;65.59;94617.34;4991329;28;20204;-79
2022/01/04 00:25:32;;;;;;;23.67;14.27;;;;;;;9.61;65.81;94628.50;4990659;28;20185;-77
2022/01/04 00:28:01;;;;;;;20.80;12.30;;;;;;;9.60;65.76;94636.28;4990928;28;20284;-78
2022/01/04 00:30:29;;;;;;;25.53;13.40;;;;;;;9.58;65.64;94633.84;4990421;28;20196;-77
2022/01/04 00:32:57;;;;;;;18.80;12.03;;;;;;;9.57;65.80;94634.00;4990349;28;20262;-78
2022/01/04 00:35:24;;;;;;;19.13;11.97;;;;;;;9.55;65.96;94639.25;4988884;28;20656;-78
2022/01/04 00:37:51;;;;;;;19.63;12.13;;;;;;;9.54;66.04;94642.72;4990887;28;20290;-78
2022/01/04 00:40:18;;;;;;;17.27;11.70;;;;;;;9.52;66.07;94644.59;4990550;28;20211;-77
2022/01/04 00:42:44;;;;;;;17.77;10.70;;;;;;;9.52;66.14;94653.06;4990192;28;20649;-77
2022/01/04 00:45:11;;;;;;;17.13;10.70;;;;;;;9.50;66.23;94656.72;4989954;28;20665;-77
2022/01/04 00:47:46;;;;;;;16.03;10.00;;;;;;;9.50;66.32;94656.72;4990157;28;20235;-76
2022/01/04 00:50:14;;;;;;;15.30;10.67;;;;;;;9.47;66.36;94656.97;4990164;28;20223;-77
2022/01/04 00:52:42;;;;;;;17.93;10.87;;;;;;;9.32;66.59;94631.00;4992559;28;20736;-79
2022/01/04 00:55:11;;;;;;;18.50;11.40;;;;;;;9.37;66.65;94639.09;4994150;28;20189;-75
2022/01/04 00:57:39;;;;;;;18.03;10.30;;;;;;;9.33;66.53;94621.63;4994096;28;20189;-77
2022/01/04 01:00:09;;;;;;;15.87;10.63;;;;;;;9.43;66.58;94637.75;4992364;28;20196;-78
2022/01/04 01:02:37;;;;;;;15.40;9.77;;;;;;;9.20;66.60;94602.25;4986775;28;20240;-79
2022/01/04 01:05:05;;;;;;;15.40;9.90;;;;;;;9.13;66.58;94590.94;5013710;28;20208;-76
2022/01/04 01:07:34;;;;;;;14.77;10.10;;;;;;;9.35;66.59;94633.28;4995780;28;20742;-76
2022/01/04 01:10:11;;;;;;;12.37;9.70;;;;;;;9.34;66.68;94623.22;4996288;28;20192;-78
2022/01/04 01:12:41;;;;;;;18.87;9.83;;;;;;;9.30;66.80;94631.13;5013347;28;20188;-79
2022/01/04 01:15:10;;;;;;;14.03;9.57;;;;;;;9.25;66.86;94623.06;5013319;28;20664;-79
2022/01/04 01:17:38;;;;;;;15.00;9.67;;;;;;;9.24;66.90;94620.63;5012771;28;20204;-79
2022/01/04 01:20:08;;;;;;;12.90;8.27;;;;;;;9.22;67.03;94618.22;5013180;28;20200;-78
2022/01/04 01:22:37;;;;;;;12.07;8.63;;;;;;;8.99;66.98;94588.78;5013276;28;20188;-77
2022/01/04 01:25:05;;;;;;;14.10;10.00;;;;;;;9.18;67.05;94624.53;5013495;28;20203;-77
2022/01/04 01:27:32;;;;;;;15.77;9.07;;;;;;;9.17;66.97;94615.25;5010718;28;20223;-79
2022/01/04 01:29:59;;;;;;;15.27;9.27;;;;;;;9.14;67.01;94617.25;5013092;28;20212;-77
2022/01/04 01:32:27;;;;;;;16.40;9.10;;;;;;;9.13;66.93;94608.81;4995319;28;20195;-78
2022/01/04 01:34:54;;;;;;;12.07;8.37;;;;;;;9.10;67.03;94611.63;5013599;28;20201;-78
2022/01/04 01:37:21;;;;;;;14.87;9.03;;;;;;;9.08;66.88;94605.84;4995582;28;20184;-78
2022/01/04 01:39:51;;;;;;;12.47;8.40;;;;;;;9.00;67.05;94596.28;4995931;28;20191;-77
2022/01/04 01:42:18;;;;;;;12.63;9.07;;;;;;;9.05;67.07;94611.19;5012969;28;20203;-78
2022/01/04 01:44:46;;;;;;;13.47;8.40;;;;;;;8.95;67.06;94608.63;5012531;28;20688;-79
2022/01/04 01:47:13;;;;;;;13.43;8.63;;;;;;;8.78;67.17;94591.41;4995402;28;20305;-77
2022/01/04 01:49:40;;;;;;;10.60;7.77;;;;;;;8.74;67.25;94582.41;4995058;28;20683;-78
2022/01/04 01:52:08;;;;;;;12.17;8.47;;;;;;;8.90;67.01;94620.97;5010705;28;20232;-78
2022/01/04 01:54:36;;;;;;;13.23;8.67;;;;;;;8.94;67.15;94618.97;4995219;28;20204;-77
2022/01/04 01:57:05;;;;;;;13.17;8.60;;;;;;;8.92;67.05;94618.28;5012899;28;20548;-78
2022/01/04 01:59:33;;;;;;;14.17;8.40;;;;;;;8.82;67.11;94608.06;5012948;28;20203;-77
2022/01/04 02:02:00;;;;;;;13.03;8.30;;;;;;;8.88;67.28;94617.72;5012729;28;20201;-76
2022/01/04 02:04:27;;;;;;;15.40;9.10;;;;;;;8.79;67.33;94605.75;5011527;28;20678;-74
2022/01/04 02:06:55;;;;;;;12.83;8.97;;;;;;;8.83;67.26;94619.88;5012365;28;20695;-79
2022/01/04 02:09:23;;;;;;;12.27;8.33;;;;;;;8.80;67.38;94617.56;5012511;28;20212;-77
2022/01/04 02:11:51;;;;;;;12.63;9.03;;;;;;;8.71;67.23;94608.13;5012584;28;20289;-79
2022/01/04 02:14:20;;;;;;;12.87;8.70;;;;;;;8.76;67.31;94614.47;5012370;28;20193;-75
2022/01/04 02:16:47;;;;;;;12.10;8.03;;;;;;;8.71;67.49;94615.78;5012596;28;20219;-77
2022/01/04 02:19:16;;;;;;;13.70;8.73;;;;;;;8.71;67.38;94619.13;5012072;28;20195;-77
2022/01/04 02:21:45;;;;;;;15.13;9.80;;;;;;;8.68;67.36;94616.03;5012450;28;20192;-79
2022/01/04 02:24:13;;;;;;;14.73;9.13;;;;;;;8.61;67.52;94602.19;4995599;28;20196;-76
2022/01/04 02:26:41;;;;;;;13.60;10.20;;;;;;;8.63;67.72;94616.41;5013278;28;20624;-76
2022/01/04 02:29:08;;;;;;;15.77;10.33;;;;;;;8.62;67.63;94622.47;5013023;28;20196;-77
2022/01/04 02:31:37;;;;;;;18.13;9.57;;;;;;;8.59;67.86;94620.16;5012137;28;20247;-76
2022/01/04 02:34:04;;;;;;;14.40;9.63;;;;;;;8.57;67.67;94608.50;5012881;28;20188;-77
2022/01/04 02:36:31;;;;;;;15.10;9.67;;;;;;;8.53;67.92;94606.19;5011855;28;20196;-78
2022/01/04 02:39:00;;;;;;;17.47;9.83;;;;;;;8.52;67.81;94619.06;4994399;28;20656;-77
2022/01/04 02:41:28;;;;;;;14.37;9.73;;;;;;;8.51;67.78;94615.72;5011669;28;20192;-77
2022/01/04 02:43:56;;;;;;;14.60;10.07;;;;;;;8.49;67.92;94609.91;5011635;28;20188;-77
2022/01/04 02:46:24;;;;;;;12.17;8.80;;;;;;;8.49;67.84;94609.13;5011773;28;20184;-77
2022/01/04 02:48:51;;;;;;;15.03;10.73;;;;;;;8.21;68.03;94567.25;5011406;28;20283;-76
2022/01/04 02:51:18;;;;;;;13.33;9.83;;;;;;;8.38;68.06;94604.91;5011267;28;20228;-77
2022/01/04 02:53:45;;;;;;;14.17;10.13;;;;;;;8.41;68.06;94601.28;5011343;28;20605;-77
2022/01/04 02:56:15;;;;;;;17.77;9.60;;;;;;;8.39;68.10;94598.88;4993835;28;20551;-76
2022/01/04 02:58:43;;;;;;;15.27;9.57;;;;;;;8.38;68.18;94599.03;4993900;28;20675;-78
2022/01/04 03:01:10;;;;;;;12.83;9.93;;;;;;;8.35;68.26;94592.41;5010967;28;20200;-78
2022/01/04 03:03:38;;;;;;;14.77;9.50;;;;;;;8.34;68.11;94590.78;5011603;28;20193;-77
2022/01/04 03:06:05;;;;;;;17.37;10.20;;;;;;;8.23;68.22;94573.81;4993782;28;20197;-78
2022/01/04 03:08:32;;;;;;;14.33;9.27;;;;;;;8.30;68.24;94579.22;5011110;28;20606;-79
2022/01/04 03:11:00;;;;;;;17.00;9.50;;;;;;;8.05;68.15;94542.22;5010719;28;20223;-78
2022/01/04 03:13:31;;;;;;;15.63;9.80;;;;;;;8.27;68.44;94577.72;5010708;28;20200;-79
2022/01/04 03:15:58;;;;;;;14.37;9.33;;;;;;;8.27;68.57;94584.56;5010804;28;20192;-78
2022/01/04 03:18:25;;;;;;;14.47;9.70;;;;;;;8.25;68.43;94584.72;5011119;28;20196;-77
2022/01/04 03:20:53;;;;;;;14.17;10.13;;;;;;;8.24;68.43;94587.38;4993430;28;20189;-78
2022/01/04 03:23:20;;;;;;;19.93;10.27;;;;;;;8.24;68.29;94595.00;4993660;28;20196;-78
2022/01/04 03:25:48;;;;;;;17.13;10.10;;;;;;;8.12;68.43;94576.47;4993108;28;20274;-77
2022/01/04 03:28:18;;;;;;;13.33;9.30;;;;;;;8.18;68.45;94583.59;5010962;28;20243;-78
2022/01/04 03:30:48;;;;;;;14.90;10.50;;;;;;;8.06;68.73;94569.31;4992979;28;20250;-77
2022/01/04 03:33:15;;;;;;;17.87;10.27;;;;;;;8.15;68.86;94583.84;4993418;28;20200;-77
2022/01/04 03:35:42;;;;;;;14.40;9.80;;;;;;;8.09;69.17;94583.53;5010311;28;20204;-78
2022/01/04 03:38:09;;;;;;;16.00;10.80;;;;;;;8.14;69.16;94594.16;5010407;28;20678;-77
2022/01/04 03:40:37;;;;;;;17.80;9.80;;;;;;;8.16;69.17;94594.81;5010965;28;20188;-77
2022/01/04 03:43:04;;;;;;;17.60;10.77;;;;;;;8.16;69.22;94603.31;4993197;28;20200;-77
2022/01/04 03:45:31;;;;;;;16.70;11.07;;;;;;;8.15;69.02;94609.31;4993264;28;20208;-77
2022/01/04 03:48:07;;;;;;;14.33;9.40;;;;;;;8.01;69.00;94586.72;5010496;28;20231;-77
2022/01/04 03:50:34;;;;;;;17.23;9.37;;;;;;;8.11;69.08;94602.84;5009972;28;20200;-77
2022/01/04 03:53:01;;;;;;;15.10;10.07;;;;;;;8.10;68.89;94608.88;5010440;28;20321;-77
2022/01/04 03:55:31;;;;;;;13.80;9.10;;;;;;;8.10;69.14;94613.16;5010558;28;20196;-77
2022/01/04 03:57:58;;;;;;;13.27;9.43;;;;;;;8.08;69.09;94609.94;5010578;28;20255;-76
2022/01/04 04:00:26;;;;;;;13.17;9.27;;;;;;;8.05;68.97;94606.69;5010678;28;20192;-76
2022/01/04 04:02:53;;;;;;;13.80;10.07;;;;;;;7.91;68.91;94580.75;5010496;28;20195;-77
2022/01/04 04:05:22;;;;;;;15.63;9.40;;;;;;;7.95;68.96;94585.47;5010830;28;20196;-77
2022/01/04 04:07:49;;;;;;;14.00;9.90;;;;;;;7.99;69.05;94591.94;5009857;28;20232;-77
2022/01/04 04:10:16;;;;;;;15.77;9.73;;;;;;;7.99;69.11;94598.78;5009986;28;20193;-77
2022/01/04 04:12:43;;;;;;;14.33;10.70;;;;;;;7.97;69.01;94598.06;5009831;28;20198;-77
2022/01/04 04:15:11;;;;;;;12.67;9.07;;;;;;;7.97;69.10;94596.31;5010676;28;20215;-76
2022/01/04 04:17:39;;;;;;;18.70;11.10;;;;;;;7.75;68.86;94571.78;5010345;28;20192;-77
2022/01/04 04:20:08;;;;;;;17.07;10.70;;;;;;;7.93;68.82;94594.97;5010298;28;20276;-77
2022/01/04 04:22:36;;;;;;;13.60;8.83;;;;;;;7.93;68.86;94599.25;4993082;28;20196;-77
2022/01/04 04:25:04;;;;;;;15.17;9.70;;;;;;;7.91;69.03;94598.56;5010467;28;20577;-78
2022/01/04 04:27:31;;;;;;;13.87;9.37;;;;;;;7.88;68.96;94599.63;5010341;28;20216;-78
2022/01/04 04:29:59;;;;;;;15.00;10.20;;;;;;;7.87;69.02;94605.66;4992532;28;20580;-78
2022/01/04 04:32:26;;;;;;;16.33;10.23;;;;;;;7.84;69.17;94594.91;5010241;28;20215;-78
2022/01/04 04:34:54;;;;;;;17.33;10.37;;;;;;;7.77;69.27;94592.03;4992480;28;20195;-77
2022/01/04 04:37:21;;;;;;;15.00;10.33;;;;;;;7.85;69.10;94614.31;5010535;28;20675;-78
2022/01/04 04:39:51;;;;;;;17.10;11.20;;;;;;;7.82;69.25;94615.41;5010016;28;20207;-78
2022/01/04 04:42:18;;;;;;;16.00;11.07;;;;;;;7.69;69.20;94602.84;4992932;28;20672;-77
2022/01/04 04:44:46;;;;;;;15.67;10.83;;;;;;;7.74;69.13;94615.19;5009890;28;20181;-77
2022/01/04 04:47:13;;;;;;;15.13;10.87;;;;;;;7.79;69.25;94634.25;5009864;28;20281;-77
2022/01/04 04:49:40;;;;;;;15.27;10.47;;;;;;;7.53;69.03;94593.06;5009321;28;20621;-78
2022/01/04 04:52:08;;;;;;;16.70;10.60;;;;;;;7.69;68.94;94617.31;5010152;28;20224;-77
2022/01/04 04:54:35;;;;;;;17.73;11.63;;;;;;;7.75;69.13;94629.53;5010682;28;20196;-78
2022/01/04 04:57:04;;;;;;;17.33;10.80;;;;;;;7.73;69.12;94634.75;5009951;28;20227;-78
2022/01/04 04:59:31;;;;;;;18.43;11.70;;;;;;;7.50;68.92;94600.94;4992272;28;20196;-78
2022/01/04 05:01:59;;;;;;;18.07;11.73;;;;;;;7.61;69.16;94622.19;4992207;28;20200;-78
2022/01/04 05:04:27;;;;;;;21.53;11.77;;;;;;;7.59;69.15;94614.66;5010268;28;20188;-77
2022/01/04 05:06:54;;;;;;;20.77;11.53;;;;;;;7.58;69.06;94615.59;5009652;28;20200;-77
2022/01/04 05:09:21;;;;;;;17.17;11.30;;;;;;;7.64;69.33;94627.84;5009984;28;20249;-78
2022/01/04 05:11:49;;;;;;;17.40;10.80;;;;;;;7.64;69.33;94632.94;4991813;28;20218;-77
2022/01/04 05:14:18;;;;;;;14.83;11.27;;;;;;;7.63;69.34;94628.75;4993022;28;20187;-78
2022/01/04 05:16:45;;;;;;;18.13;11.27;;;;;;;7.63;69.26;94623.66;4992349;28;20664;-79
2022/01/04 05:19:15;;;;;;;17.37;11.27;;;;;;;7.63;69.25;94628.75;5010221;28;20565;-79
2022/01/04 05:21:42;;;;;;;16.77;11.17;;;;;;;7.62;69.34;94628.91;5008942;28;20616;-78
2022/01/04 05:24:10;;;;;;;22.27;13.17;;;;;;;7.40;69.38;94591.63;5009577;28;20200;-78
2022/01/04 05:26:38;;;;;;;22.50;13.47;;;;;;;7.61;69.55;94614.56;5009850;28;20184;-78
2022/01/04 05:29:06;;;;;;;19.17;12.57;;;;;;;7.59;69.48;94612.13;5009778;28;20209;-78
2022/01/04 05:31:34;;;;;;;19.17;12.60;;;;;;;7.60;69.53;94620.56;5008800;28;20197;-78
2022/01/04 05:34:02;;;;;;;20.30;13.13;;;;;;;7.54;69.52;94611.69;4992148;28;20193;-78
2022/01/04 05:36:29;;;;;;;22.00;13.30;;;;;;;7.22;69.60;94558.25;5009732;28;20193;-78
2022/01/04 05:38:56;;;;;;;27.77;15.40;;;;;;;7.57;69.58;94611.44;5012261;28;20200;-77
2022/01/04 05:41:23;;;;;;;22.77;14.10;;;;;;;7.57;69.43;94619.09;5013349;28;20181;-77
2022/01/04 05:43:50;;;;;;;29.83;14.73;;;;;;;7.49;69.47;94609.50;5013001;28;20211;-77
2022/01/04 05:46:17;;;;;;;22.43;14.40;;;;;;;7.57;69.63;94616.53;5012638;28;20204;-77
2022/01/04 05:48:47;;;;;;;21.73;14.30;;;;;;;7.59;69.38;94616.41;5012926;28;20223;-79
2022/01/04 05:51:14;;;;;;;25.37;15.00;;;;;;;7.47;69.26;94595.28;4990648;28;20240;-78
2022/01/04 05:53:41;;;;;;;24.40;15.23;;;;;;;7.59;69.36;94613.84;4990757;28;20201;-78
2022/01/04 05:56:11;;;;;;;26.20;15.27;;;;;;;7.29;69.31;94559.38;4973553;28;20193;-79
2022/01/04 05:58:39;;;;;;;27.17;15.67;;;;;;;7.58;69.45;94609.72;4990714;28;20273;-77
2022/01/04 06:01:06;;;;;;;25.17;15.57;;;;;;;7.42;69.52;94582.13;4973345;28;20205;-79
2022/01/04 06:03:33;;;;;;;22.47;15.00;;;;;;;7.52;69.54;94596.53;4990811;28;20201;-79
2022/01/04 06:06:03;;;;;;;21.50;14.67;;;;;;;7.61;69.60;94619.66;4973276;28;20208;-82
2022/01/04 06:08:34;;;;;;;24.13;16.03;;;;;;;7.47;69.53;94591.03;4974308;28;20228;-79
2022/01/04 06:11:06;;;;;;;27.70;15.53;;;;;;;7.63;69.56;94608.41;4992575;28;20197;-80
2022/01/04 06:16:18;;;;;;;25.20;15.93;;;;;;;7.61;69.46;94607.72;4976660;28;20204;-78
2022/01/04 06:18:45;;;;;;;26.37;15.97;;;;;;;7.72;69.38;94617.03;4990838;28;20295;-78
2022/01/04 06:21:15;;;;;;;24.80;15.77;;;;;;;7.75;69.26;94606.63;4992122;28;21066;-78
2022/01/04 06:23:42;;;;;;;26.67;16.53;;;;;;;7.78;69.46;94614.84;4973808;28;20197;-77
2022/01/04 06:26:10;;;;;;;22.53;15.93;;;;;;;7.78;69.39;94598.75;4975086;28;20598;-78
2022/01/04 06:28:38;;;;;;;24.20;15.30;;;;;;;7.89;69.32;94605.53;4993884;28;20231;-76
2022/01/04 06:31:06;;;;;;;20.83;15.00;;;;;;;7.95;68.98;94598.19;4990281;28;20289;-77
2022/01/04 06:33:34;;;;;;;19.80;13.30;;;;;;;7.69;68.79;94540.97;4991674;28;20922;-80
2022/01/04 06:36:02;;;;;;;19.37;12.90;;;;;;;8.09;68.48;94591.19;4972287;28;20648;-79
2022/01/04 06:38:51;;;;;;;19.63;12.87;;;;;;;8.18;68.22;94598.88;4990084;28;20587;-82
2022/01/04 06:41:19;;;;;;;19.10;11.90;;;;;;;8.20;68.25;94580.91;4990902;28;20205;-83
2022/01/04 06:46:38;;;;;;;19.37;11.50;;;;;;;8.51;67.89;94599.63;4997491;28;20274;-85
2022/01/04 06:49:21;;;;;;;17.57;11.80;;;;;;;8.60;67.62;94601.41;5007268;28;20220;-84
2022/01/04 06:51:57;;;;;;;17.00;11.20;;;;;;;8.63;67.21;94582.47;5010357;28;20224;-83
2022/01/04 06:54:30;;;;;;;15.43;10.93;;;;;;;8.65;67.10;94570.44;5010422;28;20576;-79
2022/01/04 06:57:10;;;;;;;16.27;10.03;;;;;;;8.88;66.87;94607.53;5011488;28;20204;-83
2022/01/04 06:59:49;;;;;;;19.37;12.23;;;;;;;8.71;66.65;94564.78;4994870;28;20210;-86
2022/01/04 07:05:05;;;;;;;18.67;11.97;;;;;;;9.13;66.41;94608.00;4991264;28;20193;-79
2022/01/04 07:07:34;;;;;;;26.23;14.13;;;;;;;9.20;66.13;94609.91;4989406;28;20207;-79
2022/01/04 07:10:15;;;;;;;27.77;14.00;;;;;;;9.24;65.92;94612.97;4989069;28;20307;-81
2022/01/04 07:12:43;;;;;;;22.17;15.70;;;;;;;9.40;65.85;94620.13;4972314;28;20197;-81
2022/01/04 07:15:15;;;;;;;26.17;15.80;;;;;;;9.52;65.63;94608.88;4971750;28;20197;-79
2022/01/04 07:17:42;;;;;;;25.63;18.23;;;;;;;9.69;65.43;94608.22;4989133;28;20208;-79
2022/01/04 07:20:12;;;;;;;30.67;19.60;;;;;;;9.90;65.15;94609.81;4988884;28;20213;-79
2022/01/04 07:22:40;;;;;;;27.80;20.40;;;;;;;10.10;64.98;94611.38;4986827;28;20312;-79
2022/01/04 07:25:12;;;;;;;32.57;21.37;;;;;;;10.31;64.76;94611.25;4966454;28;20209;-80
2022/01/04 07:27:40;;;;;;;37.40;21.37;;;;;;;10.50;64.61;94606.09;4987941;28;20267;-80
2022/01/04 07:30:09;;;;;;;38.10;21.60;;;;;;;10.74;64.18;94609.91;4964582;28;20692;-80
2022/01/04 07:32:36;;;;;;;30.93;21.17;;;;;;;10.70;63.85;94563.34;4964305;28;20792;-80
2022/01/04 07:35:05;;;;;;;33.10;22.93;;;;;;;11.15;63.59;94597.63;4969001;28;20208;-83
2022/01/04 07:37:33;;;;;;;32.50;21.67;;;;;;;11.39;63.11;94600.41;4970672;28;20268;-82
2022/01/04 07:42:59;;;;;;;34.53;22.77;;;;;;;11.74;62.59;94599.66;4985000;28;20201;-85
2022/01/04 07:45:34;;;;;;;34.27;23.10;;;;;;;11.34;62.21;94504.53;4968979;28;20274;-82
2022/01/04 07:48:10;;;;;;;34.88;24.20;;;;;;;12.08;61.08;94595.59;4987734;28;20443;-84
2022/01/04 07:50:40;;;;;;;36.20;23.23;;;;;;;12.22;61.04;94592.53;4987189;28;20212;-79
2022/01/04 07:53:12;;;;;;;37.47;24.87;;;;;;;11.88;60.67;94541.19;4987481;28;20236;-78
2022/01/04 07:55:42;;;;;;;36.77;25.13;;;;;;;12.30;60.52;94608.78;4987682;28;20189;-79
2022/01/04 07:58:15;;;;;;;45.27;24.60;;;;;;;12.25;60.13;94600.69;4988397;28;20215;-84
2022/01/04 08:00:46;;;;;;;42.20;23.90;;;;;;;11.95;60.00;94545.53;4987684;28;20201;-77
2022/01/04 08:03:23;;;;;;;35.77;23.10;;;;;;;12.37;59.74;94611.50;4987751;28;20595;-85
2022/01/04 08:05:50;;;;;;;35.47;23.63;;;;;;;12.38;59.48;94605.44;4987369;28;20584;-83
2022/01/04 08:08:17;;;;;;;36.70;24.47;;;;;;;12.27;59.41;94582.63;4987782;28;20641;-81
2022/01/04 08:13:47;;;;;;;41.17;24.77;;;;;;;12.15;58.59;94542.78;4988659;28;20294;-83
2022/01/04 08:16:38;;;;;;;14.57;10.10;;;;;;;12.43;82.79;94559.59;4987957;28;20699;-85
2022/01/04 08:19:06;;;;;;;12.27;8.80;;;;;;;13.10;92.10;94562.31;4968994;28;20247;-82
2022/01/04 08:21:34;;;;;;;19.27;11.37;;;;;;;13.71;86.66;94553.44;4987758;28;20211;-83
2022/01/04 08:24:16;;;;;;;32.43;19.60;;;;;;;14.48;80.69;94594.22;4963704;28;20584;-80
2022/01/04 08:35:18;;;;;;;31.20;22.77;;;;;;;14.58;66.02;94599.22;4988000;28;20215;-84
2022/01/04 08:37:45;;;;;;;31.37;22.73;;;;;;;14.45;64.76;94600.47;4988324;28;20197;-81
2022/01/04 08:40:13;;;;;;;30.07;21.53;;;;;;;14.34;63.87;94582.81;4987980;28;20199;-81
2022/01/04 08:42:40;;;;;;;28.77;21.77;;;;;;;14.17;62.61;94574.31;4969303;28;20212;-77
2022/01/04 08:45:26;;;;;;;34.63;21.87;;;;;;;14.14;61.27;94577.22;4953794;28;20204;-78
2022/01/04 08:47:59;;;;;;;28.90;21.33;;;;;;;13.99;60.92;94568.56;4985999;28;20291;-76
2022/01/04 08:50:29;;;;;;;30.80;23.00;;;;;;;13.87;60.19;94567.28;4986834;28;20693;-81
2022/01/04 08:53:03;;;;;;;30.47;21.73;;;;;;;13.79;59.59;94570.63;4965993;28;20296;-79
2022/01/04 08:55:35;;;;;;;33.07;21.87;;;;;;;13.54;59.42;94550.06;4967865;28;20197;-78
2022/01/04 08:58:03;;;;;;;33.10;22.50;;;;;;;13.62;59.10;94574.97;4950987;28;20200;-77
2022/01/04 09:00:43;;;;;;;31.90;22.07;;;;;;;13.52;58.50;94571.75;4967072;28;20206;-79
2022/01/04 09:03:15;;;;;;;28.53;21.07;;;;;;;13.41;58.44;94572.03;4967351;28;20210;-77
2022/01/04 09:05:43;;;;;;;31.13;22.10;;;;;;;13.30;58.47;94563.69;4964948;28;20220;-77
2022/01/04 09:08:12;;;;;;;28.67;21.10;;;;;;;13.15;58.29;94549.81;4965122;28;20238;-77
2022/01/04 09:10:40;;;;;;;28.77;21.67;;;;;;;13.24;58.19;94566.06;4967425;28;20197;-79
2022/01/04 09:13:16;;;;;;;34.50;21.23;;;;;;;13.19;57.87;94560.56;4967215;28;20654;-80
2022/01/04 09:18:43;;;;;;;32.80;20.50;;;;;;;13.15;57.96;94561.84;4970492;28;20772;-79
2022/01/04 09:18:50;;;;;;;27.57;19.60;;;;;;;13.13;57.90;94566.34;4971045;28;20604;-78
2022/01/04 09:21:24;;;;;;;27.17;18.80;;;;;;;13.10;57.72;94557.19;4969579;28;20209;-77
2022/01/04 09:23:53;;;;;;;30.40;19.33;;;;;;;13.11;57.61;94552.84;4971484;28;20193;-79
2022/01/04 09:26:42;;;;;;;26.60;18.53;;;;;;;12.93;57.49;94514.44;4954904;28;20204;-80
2022/01/04 09:32:28;;;;;;;23.10;17.60;;;;;;;13.14;57.27;94519.16;4970854;28;20194;-83
2022/01/04 09:35:01;;;;;;;29.73;17.93;;;;;;;13.14;57.22;94508.88;4969672;28;20197;-83
2022/01/04 09:37:32;;;;;;;25.17;18.23;;;;;;;13.14;57.24;94517.38;4951777;28;20194;-81
2022/01/04 09:40:10;;;;;;;23.60;16.30;;;;;;;13.16;56.95;94506.94;4970985;28;20257;-81
2022/01/04 09:42:39;;;;;;;22.60;16.47;;;;;;;13.04;56.99;94485.94;4970581;28;20220;-79
2022/01/04 09:45:09;;;;;;;20.73;16.27;;;;;;;13.17;57.09;94498.28;4968771;28;20216;-76
2022/01/04 09:50:30;;;;;;;23.70;16.40;;;;;;;13.22;56.83;94490.94;4970022;28;20229;-80
2022/01/04 09:53:03;;;;;;;25.33;15.57;;;;;;;13.22;56.76;94490.94;4950368;28;20228;-78
2022/01/04 09:55:42;;;;;;;23.30;15.13;;;;;;;12.98;56.64;94448.84;4965183;28;20209;-82
2022/01/04 09:58:13;;;;;;;25.03;16.20;;;;;;;13.24;56.66;94482.13;4951323;28;20197;-78
2022/01/04 10:00:40;;;;;;;20.03;14.87;;;;;;;13.25;56.56;94472.66;4967112;28;20190;-81
2022/01/04 10:03:15;;;;;;;25.90;15.33;;;;;;;13.24;56.45;94464.16;4964856;28;20213;-79
2022/01/04 10:05:44;;;;;;;19.90;14.47;;;;;;;13.25;56.69;94452.09;4967407;28;20212;-78
2022/01/04 10:08:17;;;;;;;25.07;14.80;;;;;;;13.09;56.63;94418.72;4970327;28;20201;-80
2022/01/04 10:13:38;;;;;;;18.43;14.53;;;;;;;13.19;56.39;94432.97;4968316;28;21022;-78
2022/01/04 10:16:25;;;;;;;19.53;14.47;;;;;;;13.34;56.41;94434.94;4939448;28;20216;-81
2022/01/04 10:19:33;;;;;;;19.90;14.70;;;;;;;13.37;56.16;94437.97;4970208;28;20245;-81
2022/01/04 10:22:32;;;;;;;21.43;14.73;;;;;;;13.16;56.26;94399.13;4968538;28;20193;-82
2022/01/04 10:25:22;;;;;;;23.60;15.23;;;;;;;12.96;56.19;94353.25;4965690;28;20197;-83
2022/01/04 10:27:57;;;;;;;21.63;15.60;;;;;;;13.48;56.01;94424.81;4951775;28;20222;-82
2022/01/04 10:30:29;;;;;;;19.07;15.27;;;;;;;13.40;56.11;94406.84;4951216;28;20748;-83
2022/01/04 10:33:06;;;;;;;22.73;15.70;;;;;;;13.58;55.96;94414.38;4966235;28;21002;-81
2022/01/04 10:35:39;;;;;;;22.43;16.30;;;;;;;13.35;55.73;94356.94;4952827;28;20278;-78
2022/01/04 10:41:05;;;;;;;23.00;14.97;;;;;;;13.75;55.59;94407.44;4968674;28;20198;-77
2022/01/04 10:43:38;;;;;;;16.83;13.53;;;;;;;13.68;55.35;94383.34;4969026;28;20216;-78
2022/01/04 10:46:06;;;;;;;19.30;12.87;;;;;;;13.87;55.18;94405.34;4971735;28;20204;-77
2022/01/04 10:48:39;;;;;;;19.60;14.13;;;;;;;13.61;55.15;94354.97;4968549;28;20201;-79
2022/01/04 10:51:10;;;;;;;17.20;12.90;;;;;;;13.95;54.78;94395.84;4954047;28;20590;-78
2022/01/04 10:53:45;;;;;;;16.83;12.47;;;;;;;13.95;54.68;94382.19;4971612;28;20202;-80
2022/01/04 10:56:16;;;;;;;18.73;11.97;;;;;;;13.93;54.57;94381.53;4965295;28;20201;-79
2022/01/04 10:58:48;;;;;;;18.87;12.70;;;;;;;13.90;54.52;94361.28;4948647;28;20221;-79
2022/01/04 11:01:20;;;;;;;16.57;11.90;;;;;;;13.96;54.38;94365.78;4966085;28;20724;-79
2022/01/04 11:03:59;;;;;;;16.80;12.30;;;;;;;14.14;54.14;94378.41;4967851;28;20200;-80
2022/01/04 11:09:19;;;;;;;15.53;11.37;;;;;;;14.14;54.01;94379.19;4968778;28;20233;-81
2022/01/04 11:11:52;;;;;;;17.43;12.07;;;;;;;14.13;53.86;94381.94;4971090;28;20205;-82
2022/01/04 11:14:22;;;;;;;18.57;12.17;;;;;;;13.77;54.03;94336.94;4971002;28;20202;-82
2022/01/04 11:17:00;;;;;;;13.23;10.40;;;;;;;14.10;53.92;94377.13;4955761;28;20589;-81
2022/01/04 11:19:29;;;;;;;15.10;11.00;;;;;;;13.94;53.80;94350.50;4973953;28;20203;-85
2022/01/04 11:24:54;;;;;;;15.90;12.17;;;;;;;14.07;53.58;94370.53;4967620;28;20211;-82
2022/01/04 11:27:22;;;;;;;16.97;11.77;;;;;;;13.61;53.72;94295.06;4968952;28;20193;-82
2022/01/04 11:29:58;;;;;;;13.97;12.47;;;;;;;14.09;53.82;94360.09;4953062;28;20229;-82
2022/01/04 11:32:31;;;;;;;15.63;12.57;;;;;;;14.01;53.67;94345.50;4968338;28;20193;-81
2022/01/04 11:35:16;;;;;;;10.17;6.53;;;;;;;14.29;71.72;94351.81;4966499;28;20209;-83
2022/01/04 11:37:55;;;;;;;7.40;5.93;;;;;;;14.78;73.45;94341.25;4955784;28;20751;-80
2022/01/04 11:40:34;;;;;;;14.40;6.90;;;;;;;15.21;71.93;94328.66;4970603;28;20212;-79
2022/01/04 11:46:12;;;;;;;18.93;7.53;;;;;;;16.37;69.06;94323.88;4971663;28;20249;-80
2022/01/04 11:48:51;;;;;;;17.73;11.20;;;;;;;16.26;66.48;94270.94;4973983;28;20200;-83
2022/01/04 11:51:43;;;;;;;19.30;11.67;;;;;;;16.64;62.81;94323.16;4966956;28;20225;-81
2022/01/04 11:54:32;;;;;;;13.63;11.30;;;;;;;16.41;61.14;94294.94;4969397;28;20668;-82
2022/01/04 12:00:03;;;;;;;17.10;12.47;;;;;;;16.32;58.09;94298.63;4953140;28;20287;-82
2022/01/04 12:02:35;;;;;;;22.07;14.53;;;;;;;16.09;57.31;94283.25;4943552;28;20281;-79
2022/01/04 12:05:20;;;;;;;16.63;13.30;;;;;;;16.22;56.11;94316.94;4969709;28;20833;-83
2022/01/04 12:10:42;;;;;;;19.07;13.47;;;;;;;16.09;54.76;94308.25;4954849;28;20233;-78
2022/01/04 12:13:16;;;;;;;19.87;13.53;;;;;;;16.01;54.14;94312.53;4969960;28;20193;-80
2022/01/04 12:19:07;;;;;;;18.57;13.70;;;;;;;15.78;53.74;94320.38;4968106;28;20201;-79
2022/01/04 12:22:03;;;;;;;19.97;13.70;;;;;;;15.68;53.29;94311.34;4952137;28;20589;-83
2022/01/04 12:24:47;;;;;;;18.63;14.20;;;;;;;15.49;53.21;94292.00;4951031;28;20264;-81
2022/01/04 12:27:16;;;;;;;19.07;13.63;;;;;;;15.52;53.33;94307.91;4968004;28;20587;-81
2022/01/04 12:29:50;;;;;;;20.53;14.07;;;;;;;15.25;53.12;94273.25;4953813;28;20257;-84
2022/01/04 12:32:24;;;;;;;18.47;14.50;;;;;;;15.37;53.01;94296.81;4968276;28;20197;-83
2022/01/04 12:37:38;;;;;;;27.07;18.63;;;;;;;15.12;53.13;94259.38;4967741;28;20201;-82